KLWT/LWT METAR and TAF weather

Enter ICAO airport designator
Station Type Date Time Source
KLWT METAR 2020/08/05 23:54 UTC NOAA

KLWT 052354Z AUTO 07009KT 10SM CLR 31/08 A2993 RMK AO2 SLP093 T03060078 10311 20272 56017


Station Type Date Time Source
KLWT Decoded METAR 2020/08/05 23:54 UTC NOAA

LEWISTOWN MUNICIPAL AIRPORT , MT, United States (KLWT) 47-03N 109-27W
Aug 05, 2020 - 07:54 PM EDT / 2020.08.05 2354 UTC
Wind: from the ENE (070 degrees) at 10 MPH (9 KT):0
Visibility: 10 mile(s):0
Sky conditions: clear
Temperature: 87.1 F (30.6 C)
Dew Point: 46.0 F (7.8 C)
Relative Humidity: 24%
Pressure (altimeter): 29.93 in. Hg (1013 hPa)
Pressure tendency: 0.05 inches (1.7 hPa) lower than three hours ago
ob: KLWT 052354Z AUTO 07009KT 10SM CLR 31/08 A2993 RMK AO2 SLP093 T03060078 10311 20272 56017
cycle: 0

Station Type Date Time Source
KLWT TAF 2020/08/06 00:00 UTC NOAA

TAF KLWT 052357Z 0600/0624 11009KT P6SM SKC
FM061100 VRB06KT P6SM SKC
FM061700 11008KT P6SM FEW200
FM062100 18011G18KT P6SM SCT100 PROB30 0622/0623 5SM -SHRA BR BKN100

Example: see airport list